createdAt,value
2022-09-26T00:01:45.260Z,8.90
2022-09-26T00:04:22.960Z,8.90
2022-09-26T00:06:53.170Z,8.80
2022-09-26T00:09:21.921Z,8.80
2022-09-26T00:11:50.383Z,8.80
2022-09-26T00:14:22.991Z,8.80
2022-09-26T00:16:51.429Z,8.80
2022-09-26T00:19:20.425Z,8.70
2022-09-26T00:21:49.659Z,8.70
2022-09-26T00:24:18.591Z,8.70
2022-09-26T00:26:46.989Z,8.70
2022-09-26T00:29:16.035Z,8.70
2022-09-26T00:31:49.129Z,8.60
2022-09-26T00:34:20.180Z,8.60
2022-09-26T00:36:48.733Z,8.60
2022-09-26T00:39:19.754Z,8.60
2022-09-26T00:41:48.218Z,8.70
2022-09-26T00:44:38.234Z,8.70
2022-09-26T00:47:18.014Z,8.70
2022-09-26T00:49:47.977Z,8.70
2022-09-26T00:52:21.289Z,8.70
2022-09-26T00:54:56.173Z,8.70
2022-09-26T00:57:28.044Z,8.80
2022-09-26T01:00:02.149Z,8.80
2022-09-26T01:02:32.094Z,8.70
2022-09-26T01:05:01.337Z,8.70
2022-09-26T01:07:31.033Z,8.60
2022-09-26T01:09:59.695Z,8.50
2022-09-26T01:12:28.019Z,8.50
2022-09-26T01:14:57.021Z,8.60
2022-09-26T01:17:26.461Z,8.60
2022-09-26T01:20:24.497Z,8.50
2022-09-26T01:23:25.819Z,8.60
2022-09-26T01:26:17.585Z,8.70
2022-09-26T01:29:10.555Z,8.70
2022-09-26T01:32:14.717Z,8.70
2022-09-26T01:34:51.026Z,8.70
2022-09-26T01:37:25.713Z,8.70
2022-09-26T01:40:04.574Z,8.70
2022-09-26T01:42:39.268Z,8.70
2022-09-26T01:45:15.194Z,8.70
2022-09-26T01:47:49.877Z,8.70
2022-09-26T01:50:30.636Z,8.60
2022-09-26T01:53:05.580Z,8.50
2022-09-26T01:55:39.950Z,8.50
2022-09-26T01:58:15.853Z,8.50
2022-09-26T02:01:03.191Z,8.50
2022-09-26T02:03:46.783Z,8.50
2022-09-26T02:06:32.299Z,8.50
2022-09-26T02:09:15.230Z,8.40
2022-09-26T02:14:58.198Z,8.30
2022-09-26T02:17:33.012Z,8.30
2022-09-26T02:20:23.196Z,8.20
2022-09-26T02:23:12.817Z,8.10
2022-09-26T02:26:04.747Z,8.10
2022-09-26T02:28:41.070Z,7.90
2022-09-26T02:31:26.709Z,7.80
2022-09-26T02:33:58.347Z,7.80
2022-09-26T02:36:48.987Z,7.80
2022-09-26T02:39:38.790Z,7.80
2022-09-26T02:42:27.562Z,7.80
2022-09-26T02:45:28.136Z,7.90
2022-09-26T02:48:33.689Z,7.90
2022-09-26T02:51:43.338Z,7.90
2022-09-26T02:54:51.529Z,8.00
2022-09-26T02:57:48.224Z,8.00
2022-09-26T03:00:45.299Z,8.00
2022-09-26T03:03:40.357Z,8.10
2022-09-26T03:06:18.934Z,8.20
2022-09-26T03:08:58.242Z,8.20
2022-09-26T03:12:09.004Z,8.20
2022-09-26T03:14:43.116Z,8.10
2022-09-26T03:17:15.419Z,8.20
2022-09-26T03:20:00.304Z,8.20
2022-09-26T03:22:48.166Z,8.30
2022-09-26T03:25:20.958Z,8.30
2022-09-26T03:28:14.879Z,8.30
2022-09-26T03:31:01.493Z,8.30
2022-09-26T03:33:48.495Z,8.40
2022-09-26T03:36:23.901Z,8.40
2022-09-26T03:39:43.735Z,8.50
2022-09-26T03:42:48.449Z,8.50
2022-09-26T03:49:07.805Z,8.50
2022-09-26T03:51:41.635Z,8.50
2022-09-26T03:54:12.566Z,8.50
2022-09-26T03:56:46.991Z,8.40
2022-09-26T03:59:45.320Z,8.50
2022-09-26T04:02:44.084Z,8.50
2022-09-26T04:05:48.863Z,8.50
2022-09-26T04:11:29.928Z,8.60
2022-09-26T04:14:37.110Z,8.70
2022-09-26T04:17:16.362Z,8.80
2022-09-26T04:20:14.541Z,8.50
2022-09-26T04:22:58.801Z,8.60
2022-09-26T04:25:52.703Z,8.60
2022-09-26T04:28:37.944Z,8.60
2022-09-26T04:31:08.557Z,8.60
2022-09-26T04:33:40.248Z,8.60
2022-09-26T04:36:17.181Z,8.60
2022-09-26T04:39:08.366Z,8.60
2022-09-26T04:44:19.029Z,8.50
2022-09-26T04:46:48.170Z,8.60
2022-09-26T04:49:16.638Z,8.70
2022-09-26T04:51:46.875Z,8.60
2022-09-26T04:54:17.377Z,8.60
2022-09-26T04:56:49.679Z,8.70
2022-09-26T04:59:18.242Z,8.70
2022-09-26T05:01:46.810Z,8.60
2022-09-26T05:04:36.793Z,8.70
2022-09-26T05:07:42.496Z,8.60
2022-09-26T05:10:49.232Z,8.80
2022-09-26T05:13:54.090Z,8.80
2022-09-26T05:16:29.484Z,8.70
2022-09-26T05:19:19.655Z,8.70
2022-09-26T05:21:48.672Z,8.80
2022-09-26T05:24:50.344Z,8.80
2022-09-26T05:27:19.565Z,8.90
2022-09-26T05:30:08.676Z,9.00
2022-09-26T05:32:41.603Z,8.90
2022-09-26T05:35:11.418Z,9.00
2022-09-26T05:38:05.914Z,8.90
2022-09-26T05:47:52.013Z,9.10
2022-09-26T06:00:38.978Z,9.20
2022-09-26T06:03:10.466Z,9.20
2022-09-26T06:06:12.459Z,9.20
2022-09-26T06:08:42.951Z,9.20
2022-09-26T06:11:15.360Z,9.30
2022-09-26T06:13:46.849Z,9.40
2022-09-26T06:16:54.613Z,9.40
2022-09-26T06:23:33.579Z,9.40
2022-09-26T06:26:04.649Z,9.10
2022-09-26T06:28:33.641Z,9.30
2022-09-26T06:31:11.331Z,9.40
2022-09-26T06:33:50.800Z,9.40
2022-09-26T06:39:40.828Z,9.40
2022-09-26T06:43:15.933Z,9.10
2022-09-26T06:45:53.170Z,9.30
2022-09-26T06:51:51.399Z,9.40
2022-09-26T06:54:38.105Z,9.60
2022-09-26T06:57:15.652Z,9.70
2022-09-26T07:00:21.205Z,9.80
2022-09-26T07:02:55.740Z,9.90
2022-09-26T07:05:27.956Z,9.70
2022-09-26T07:07:58.835Z,9.90
2022-09-26T07:10:28.265Z,10.00
2022-09-26T07:16:39.091Z,10.30
2022-09-26T07:19:16.165Z,10.40
2022-09-26T07:22:05.584Z,10.40
2022-09-26T07:24:37.662Z,10.40
2022-09-26T07:27:16.348Z,10.20
2022-09-26T07:29:47.695Z,10.50
2022-09-26T07:32:19.667Z,10.20
2022-09-26T07:35:02.046Z,10.30
2022-09-26T07:38:27.810Z,10.30
2022-09-26T07:49:00.089Z,14.00
2022-09-26T07:58:57.868Z,11.50
2022-09-26T08:01:51.598Z,11.90
2022-09-26T08:05:20.130Z,12.90
2022-09-26T08:07:50.069Z,15.30
2022-09-26T08:10:22.494Z,16.20
2022-09-26T08:12:59.138Z,17.60
2022-09-26T08:15:30.404Z,17.40
2022-09-26T08:19:03.696Z,16.10
2022-09-26T08:25:28.229Z,16.70
2022-09-26T08:28:03.417Z,17.60
2022-09-26T08:30:33.299Z,16.50
2022-09-26T08:33:02.403Z,17.30
2022-09-26T08:42:18.131Z,18.00
2022-09-26T08:45:36.434Z,16.40
2022-09-26T08:48:13.958Z,17.90
2022-09-26T08:50:49.717Z,17.60
2022-09-26T08:53:47.124Z,18.30
2022-09-26T08:56:59.669Z,18.20
2022-09-26T08:59:56.007Z,17.70
2022-09-26T09:02:36.509Z,15.70
2022-09-26T09:05:10.695Z,13.60
2022-09-26T09:07:42.816Z,13.30
2022-09-26T09:10:18.118Z,13.20
2022-09-26T09:12:58.121Z,12.80
2022-09-26T09:15:47.715Z,12.50
2022-09-26T09:18:38.010Z,12.40
2022-09-26T09:21:20.922Z,12.50
2022-09-26T09:24:08.356Z,12.50
2022-09-26T09:30:15.844Z,12.90
2022-09-26T09:33:07.601Z,13.70
2022-09-26T09:36:16.604Z,13.10
2022-09-26T09:45:20.027Z,13.20
2022-09-26T09:55:11.224Z,13.40
2022-09-26T09:58:10.887Z,13.20
2022-09-26T10:04:39.027Z,13.50
2022-09-26T10:07:09.873Z,13.50
2022-09-26T10:09:42.564Z,13.10
2022-09-26T10:12:17.241Z,13.10
2022-09-26T10:14:55.260Z,12.90
2022-09-26T10:17:27.966Z,12.90
2022-09-26T10:19:58.512Z,12.90
2022-09-26T10:22:32.828Z,13.00
2022-09-26T10:25:09.074Z,13.10
2022-09-26T10:27:40.334Z,13.40
2022-09-26T10:30:26.957Z,13.50
2022-09-26T10:32:59.215Z,13.50
2022-09-26T10:35:35.326Z,13.50
2022-09-26T10:38:27.183Z,13.40
2022-09-26T10:40:59.802Z,13.60
2022-09-26T10:43:30.788Z,13.50
2022-09-26T10:46:13.001Z,13.40
2022-09-26T10:49:05.814Z,13.10
2022-09-26T10:51:44.831Z,13.20
2022-09-26T10:54:19.521Z,13.60
2022-09-26T10:57:15.623Z,13.60
2022-09-26T11:14:29.261Z,13.90
2022-09-26T11:17:00.437Z,14.20
2022-09-26T11:20:01.794Z,14.10
2022-09-26T11:22:39.949Z,13.90
2022-09-26T11:25:18.831Z,13.90
2022-09-26T11:27:54.519Z,14.00
2022-09-26T11:40:59.072Z,14.70
2022-09-26T11:43:55.144Z,14.00
2022-09-26T11:46:39.496Z,14.30
2022-09-26T11:49:47.491Z,14.00
2022-09-26T11:52:36.746Z,13.90
2022-09-26T11:55:26.855Z,14.10
2022-09-26T11:58:04.884Z,14.10
2022-09-26T12:04:16.746Z,13.80
2022-09-26T12:06:57.783Z,13.80
2022-09-26T12:09:42.313Z,13.80
2022-09-26T12:12:47.546Z,14.20
2022-09-26T12:18:20.470Z,14.20
2022-09-26T12:21:17.079Z,14.30
2022-09-26T12:23:52.315Z,14.20
2022-09-26T12:26:30.728Z,14.00
2022-09-26T12:29:33.626Z,13.70
2022-09-26T12:32:57.098Z,14.00
2022-09-26T12:39:24.657Z,13.40
2022-09-26T12:42:12.018Z,13.30
2022-09-26T12:45:09.189Z,13.30
2022-09-26T12:48:03.742Z,13.20
2022-09-26T12:50:47.466Z,13.10
2022-09-26T12:54:28.022Z,13.10
2022-09-26T12:57:22.608Z,13.30
2022-09-26T13:00:42.971Z,14.00
2022-09-26T13:04:02.279Z,14.00
2022-09-26T13:07:25.383Z,14.20
2022-09-26T13:10:21.204Z,13.90
2022-09-26T13:13:39.139Z,13.90
2022-09-26T13:16:40.811Z,13.80
2022-09-26T13:22:38.349Z,13.80
2022-09-26T13:25:20.390Z,13.90
2022-09-26T13:27:57.984Z,14.10
2022-09-26T13:30:35.975Z,14.10
2022-09-26T13:33:13.422Z,14.00
2022-09-26T13:35:45.348Z,13.80
2022-09-26T13:38:36.679Z,13.60
2022-09-26T13:41:42.995Z,13.70
2022-09-26T13:44:40.769Z,13.80
2022-09-26T13:47:22.583Z,13.60
2022-09-26T13:50:34.200Z,14.00
2022-09-26T13:53:32.727Z,14.10
2022-09-26T13:56:37.897Z,13.90
2022-09-26T13:59:29.014Z,14.00
2022-09-26T14:02:26.632Z,13.90
2022-09-26T14:05:51.646Z,13.90
2022-09-26T14:08:48.403Z,14.00
2022-09-26T14:11:33.789Z,14.00
2022-09-26T14:14:27.168Z,14.10
2022-09-26T14:16:57.652Z,14.00
2022-09-26T14:19:39.287Z,14.00
2022-09-26T14:22:49.145Z,13.90
2022-09-26T14:25:53.510Z,14.00
2022-09-26T14:28:42.940Z,13.80
2022-09-26T14:31:47.822Z,13.90
2022-09-26T14:34:28.155Z,13.90
2022-09-26T14:37:08.699Z,13.70
2022-09-26T14:39:46.095Z,13.60
2022-09-26T14:42:28.837Z,13.70
2022-09-26T14:45:17.275Z,13.50
2022-09-26T14:55:05.712Z,13.20
2022-09-26T15:01:12.426Z,13.20
2022-09-26T15:03:43.795Z,13.20
2022-09-26T15:06:14.939Z,13.30
2022-09-26T15:11:52.007Z,13.20
2022-09-26T15:15:27.674Z,13.00
2022-09-26T15:18:33.873Z,13.10
2022-09-26T15:21:16.759Z,13.10
2022-09-26T15:23:50.649Z,13.10
2022-09-26T15:26:22.488Z,13.10
2022-09-26T15:35:31.373Z,12.60
2022-09-26T15:38:58.599Z,12.60
2022-09-26T15:45:00.777Z,12.20
2022-09-26T15:47:45.169Z,12.20
2022-09-26T15:50:22.725Z,12.20
2022-09-26T15:53:06.645Z,12.00
2022-09-26T15:55:44.897Z,12.00
2022-09-26T15:58:31.043Z,12.00
2022-09-26T16:07:52.834Z,12.10
2022-09-26T16:10:42.721Z,12.20
2022-09-26T16:13:26.792Z,12.10
2022-09-26T16:16:24.201Z,12.30
2022-09-26T16:19:01.021Z,12.30
2022-09-26T16:21:51.756Z,12.20
2022-09-26T16:27:58.145Z,12.30
2022-09-26T16:31:58.984Z,12.00
2022-09-26T16:35:06.021Z,12.20
2022-09-26T16:37:50.221Z,12.20
2022-09-26T16:40:19.992Z,12.10
2022-09-26T16:49:47.205Z,11.90
2022-09-26T16:52:48.173Z,11.90
2022-09-26T16:55:18.083Z,11.90
2022-09-26T16:58:06.206Z,11.90
2022-09-26T17:00:56.376Z,11.90
2022-09-26T17:03:29.940Z,12.00
2022-09-26T17:06:14.888Z,11.90
2022-09-26T17:08:56.116Z,11.90
2022-09-26T17:11:53.076Z,11.90
2022-09-26T17:14:51.282Z,11.90
2022-09-26T17:17:31.374Z,11.90
2022-09-26T17:20:03.283Z,11.90
2022-09-26T17:22:36.896Z,11.90
2022-09-26T17:25:36.710Z,11.90
2022-09-26T17:28:10.161Z,12.00
2022-09-26T17:31:04.416Z,11.90
2022-09-26T17:33:40.078Z,11.90
2022-09-26T17:36:12.379Z,11.90
2022-09-26T17:38:46.240Z,11.80
2022-09-26T17:41:15.838Z,11.90
2022-09-26T17:44:06.607Z,12.00
2022-09-26T17:46:42.035Z,11.80
2022-09-26T17:49:28.552Z,11.80
2022-09-26T17:52:05.709Z,11.80
2022-09-26T17:54:58.612Z,11.80
2022-09-26T17:57:41.854Z,11.70
2022-09-26T18:00:33.931Z,11.70
2022-09-26T18:03:08.256Z,11.80
2022-09-26T18:05:45.590Z,11.80
2022-09-26T18:08:26.894Z,11.80
2022-09-26T18:11:17.671Z,11.70
2022-09-26T18:13:59.853Z,11.80
2022-09-26T18:31:09.666Z,11.70
2022-09-26T18:34:22.082Z,11.70
2022-09-26T18:36:52.138Z,11.70
2022-09-26T18:39:54.667Z,11.70
2022-09-26T18:42:25.353Z,11.60
2022-09-26T18:45:28.771Z,11.60
2022-09-26T18:51:04.944Z,11.70
2022-09-26T18:53:37.657Z,11.60
2022-09-26T18:56:26.478Z,11.60
2022-09-26T18:58:55.730Z,11.60
2022-09-26T19:01:29.496Z,11.60
2022-09-26T19:04:01.266Z,11.60
2022-09-26T19:06:37.084Z,11.60
2022-09-26T19:09:20.643Z,11.50
2022-09-26T19:11:58.892Z,11.60
2022-09-26T19:14:31.251Z,11.50
2022-09-26T19:17:01.321Z,11.50
2022-09-26T19:19:37.430Z,11.50
2022-09-26T19:22:14.247Z,11.40
2022-09-26T19:24:47.074Z,11.40
2022-09-26T19:27:19.560Z,11.50
2022-09-26T19:29:54.132Z,11.50
2022-09-26T19:38:57.843Z,10.90
2022-09-26T19:41:27.748Z,11.10
2022-09-26T19:43:57.392Z,10.30
2022-09-26T19:46:30.750Z,10.10
2022-09-26T19:49:06.520Z,10.10
2022-09-26T19:51:40.112Z,10.00
2022-09-26T19:57:19.774Z,10.20
2022-09-26T19:59:55.659Z,10.20
2022-09-26T20:02:33.264Z,10.00
2022-09-26T20:05:06.199Z,10.10
2022-09-26T20:07:38.682Z,10.10
2022-09-26T20:10:18.994Z,10.10
2022-09-26T20:12:49.778Z,10.10
2022-09-26T20:15:21.314Z,10.00
2022-09-26T20:17:50.994Z,10.20
2022-09-26T20:20:21.807Z,10.30
2022-09-26T20:22:51.850Z,10.30
2022-09-26T20:28:39.848Z,10.30
2022-09-26T20:31:18.629Z,10.10
2022-09-26T20:33:47.738Z,10.30
2022-09-26T20:36:16.566Z,10.20
2022-09-26T20:38:47.992Z,10.20
2022-09-26T20:41:23.482Z,10.00
2022-09-26T20:44:02.162Z,10.10
2022-09-26T20:46:33.521Z,9.80
2022-09-26T20:49:04.557Z,10.10
2022-09-26T20:51:35.180Z,10.10
2022-09-26T20:54:07.259Z,9.80
2022-09-26T20:56:41.434Z,10.00
2022-09-26T20:59:12.133Z,10.10
2022-09-26T21:01:45.177Z,10.00
2022-09-26T21:04:17.153Z,10.00
2022-09-26T21:06:46.436Z,9.90
2022-09-26T21:09:17.420Z,9.90
2022-09-26T21:11:49.905Z,9.60
2022-09-26T21:14:20.296Z,9.90
2022-09-26T21:16:53.654Z,9.90
2022-09-26T21:19:24.785Z,9.80
2022-09-26T21:22:27.038Z,9.90
2022-09-26T21:24:56.394Z,9.80
2022-09-26T21:27:49.901Z,9.90
2022-09-26T21:30:28.124Z,9.80
2022-09-26T21:33:01.655Z,9.80
2022-09-26T21:35:33.892Z,9.70
2022-09-26T21:38:04.168Z,9.70
2022-09-26T21:40:38.754Z,9.60
2022-09-26T21:43:33.894Z,9.70
2022-09-26T21:46:09.566Z,9.80
2022-09-26T21:48:38.055Z,9.60
2022-09-26T21:51:08.969Z,9.60
2022-09-26T21:53:45.876Z,9.50
2022-09-26T21:56:18.945Z,9.60
2022-09-26T21:58:49.594Z,9.50
2022-09-26T22:01:21.842Z,9.60
2022-09-26T22:03:51.121Z,9.50
2022-09-26T22:06:20.604Z,9.50
2022-09-26T22:08:49.227Z,9.50
2022-09-26T22:11:21.648Z,9.50
2022-09-26T22:13:53.827Z,9.40
2022-09-26T22:16:23.840Z,9.30
2022-09-26T22:18:52.483Z,9.40
2022-09-26T22:21:20.945Z,9.40
2022-09-26T22:23:51.173Z,9.40
2022-09-26T22:26:21.446Z,9.40
2022-09-26T22:28:50.126Z,9.30
2022-09-26T22:31:21.890Z,9.40
2022-09-26T22:33:53.266Z,9.40
2022-09-26T22:36:21.899Z,9.30
2022-09-26T22:38:54.996Z,9.20
2022-09-26T22:41:24.194Z,9.30
2022-09-26T22:43:54.193Z,9.10
2022-09-26T22:46:22.771Z,9.40
2022-09-26T22:48:52.785Z,9.50
2022-09-26T22:51:21.122Z,9.20
2022-09-26T22:53:49.509Z,9.20
2022-09-26T22:56:18.494Z,9.30
2022-09-26T22:58:49.188Z,9.30
2022-09-26T23:01:19.807Z,9.40
2022-09-26T23:03:48.269Z,9.40
2022-09-26T23:06:18.077Z,9.40
2022-09-26T23:08:46.697Z,9.50
2022-09-26T23:11:17.271Z,9.20
2022-09-26T23:13:46.719Z,9.30
2022-09-26T23:16:17.494Z,9.20
2022-09-26T23:18:46.269Z,9.30
2022-09-26T23:21:19.843Z,9.20
2022-09-26T23:23:50.249Z,9.10
2022-09-26T23:26:22.433Z,9.20
2022-09-26T23:28:52.305Z,9.20
2022-09-26T23:31:22.003Z,9.20
2022-09-26T23:33:50.424Z,9.10
2022-09-26T23:36:22.679Z,9.20
2022-09-26T23:38:51.427Z,9.20
2022-09-26T23:41:20.253Z,9.20
2022-09-26T23:43:49.041Z,9.30
2022-09-26T23:46:17.865Z,9.30
2022-09-26T23:48:46.840Z,9.30
2022-09-26T23:51:15.567Z,9.30
2022-09-26T23:53:45.594Z,9.30
2022-09-26T23:56:15.624Z,9.30
2022-09-26T23:58:44.227Z,9.30
